sensor_id;sensor_type;location;lat;lon;timestamp;temperature;humidity
6333;DHT22;3199;49.102;8.856;2022-09-06T00:01:39;18.60;98.50
6333;DHT22;3199;49.102;8.856;2022-09-06T00:04:05;18.60;98.60
6333;DHT22;3199;49.102;8.856;2022-09-06T00:06:31;18.60;98.80
6333;DHT22;3199;49.102;8.856;2022-09-06T00:08:56;18.60;99.00
6333;DHT22;3199;49.102;8.856;2022-09-06T00:11:22;18.60;99.10
6333;DHT22;3199;49.102;8.856;2022-09-06T00:13:47;18.50;99.20
6333;DHT22;3199;49.102;8.856;2022-09-06T00:16:21;18.50;99.30
6333;DHT22;3199;49.102;8.856;2022-09-06T00:18:48;18.50;99.60
6333;DHT22;3199;49.102;8.856;2022-09-06T00:21:16;18.50;99.80
6333;DHT22;3199;49.102;8.856;2022-09-06T00:23:42;18.50;99.90
6333;DHT22;3199;49.102;8.856;2022-09-06T00:26:08;18.40;99.90
6333;DHT22;3199;49.102;8.856;2022-09-06T00:28:33;18.40;99.90
6333;DHT22;3199;49.102;8.856;2022-09-06T00:31:07;18.40;99.90
6333;DHT22;3199;49.102;8.856;2022-09-06T00:33:33;18.40;99.90
6333;DHT22;3199;49.102;8.856;2022-09-06T00:35:58;18.40;99.90
6333;DHT22;3199;49.102;8.856;2022-09-06T00:38:25;18.50;99.90
6333;DHT22;3199;49.102;8.856;2022-09-06T00:40:50;18.40;99.90
6333;DHT22;3199;49.102;8.856;2022-09-06T00:43:16;18.40;99.90
6333;DHT22;3199;49.102;8.856;2022-09-06T00:45:41;18.40;99.90
6333;DHT22;3199;49.102;8.856;2022-09-06T00:48:07;18.40;99.90
6333;DHT22;3199;49.102;8.856;2022-09-06T00:50:32;18.30;99.90
6333;DHT22;3199;49.102;8.856;2022-09-06T00:52:58;18.30;99.90
6333;DHT22;3199;49.102;8.856;2022-09-06T00:55:24;18.30;99.90
6333;DHT22;3199;49.102;8.856;2022-09-06T00:57:50;18.30;99.90
6333;DHT22;3199;49.102;8.856;2022-09-06T01:00:18;18.30;99.90
6333;DHT22;3199;49.102;8.856;2022-09-06T01:02:45;18.20;99.90
6333;DHT22;3199;49.102;8.856;2022-09-06T01:05:11;18.20;99.90
6333;DHT22;3199;49.102;8.856;2022-09-06T01:16:44;18.20;99.90
6333;DHT22;3199;49.102;8.856;2022-09-06T01:24:48;18.20;99.90
6333;DHT22;3199;49.102;8.856;2022-09-06T01:30:08;18.20;99.90
6333;DHT22;3199;49.102;8.856;2022-09-06T01:35:37;18.30;99.90
6333;DHT22;3199;49.102;8.856;2022-09-06T01:38:05;18.30;99.90
6333;DHT22;3199;49.102;8.856;2022-09-06T01:40:32;18.30;99.90
6333;DHT22;3199;49.102;8.856;2022-09-06T01:43:01;18.30;99.90
6333;DHT22;3199;49.102;8.856;2022-09-06T01:48:46;18.40;99.90
6333;DHT22;3199;49.102;8.856;2022-09-06T01:51:45;18.40;99.90
6333;DHT22;3199;49.102;8.856;2022-09-06T01:54:36;18.40;99.90
6333;DHT22;3199;49.102;8.856;2022-09-06T02:00:07;18.50;99.90
6333;DHT22;3199;49.102;8.856;2022-09-06T02:05:31;18.60;99.90
6333;DHT22;3199;49.102;8.856;2022-09-06T02:08:03;18.60;99.90
6333;DHT22;3199;49.102;8.856;2022-09-06T02:10:37;18.60;99.90
6333;DHT22;3199;49.102;8.856;2022-09-06T02:13:06;18.70;99.90
6333;DHT22;3199;49.102;8.856;2022-09-06T02:15:37;18.70;99.90
6333;DHT22;3199;49.102;8.856;2022-09-06T02:18:16;18.70;99.90
6333;DHT22;3199;49.102;8.856;2022-09-06T02:20:50;18.80;99.90
6333;DHT22;3199;49.102;8.856;2022-09-06T02:23:17;18.70;99.90
6333;DHT22;3199;49.102;8.856;2022-09-06T02:25:52;18.70;99.90
6333;DHT22;3199;49.102;8.856;2022-09-06T02:28:19;18.70;99.90
6333;DHT22;3199;49.102;8.856;2022-09-06T02:30:52;18.60;99.90
6333;DHT22;3199;49.102;8.856;2022-09-06T02:33:20;18.60;99.90
6333;DHT22;3199;49.102;8.856;2022-09-06T02:35:49;18.60;99.90
6333;DHT22;3199;49.102;8.856;2022-09-06T02:38:17;18.60;99.90
6333;DHT22;3199;49.102;8.856;2022-09-06T02:40:43;18.70;99.90
6333;DHT22;3199;49.102;8.856;2022-09-06T02:43:09;18.70;99.90
6333;DHT22;3199;49.102;8.856;2022-09-06T02:45:35;18.70;99.90
6333;DHT22;3199;49.102;8.856;2022-09-06T02:48:00;18.70;99.90
6333;DHT22;3199;49.102;8.856;2022-09-06T02:50:26;18.70;99.90
6333;DHT22;3199;49.102;8.856;2022-09-06T02:53:06;18.70;99.90
6333;DHT22;3199;49.102;8.856;2022-09-06T02:55:32;18.70;99.90
6333;DHT22;3199;49.102;8.856;2022-09-06T02:57:57;18.70;99.90
6333;DHT22;3199;49.102;8.856;2022-09-06T03:00:24;18.70;99.90
6333;DHT22;3199;49.102;8.856;2022-09-06T03:02:49;18.70;99.90
6333;DHT22;3199;49.102;8.856;2022-09-06T03:05:15;18.70;99.90
6333;DHT22;3199;49.102;8.856;2022-09-06T03:07:40;18.70;99.90
6333;DHT22;3199;49.102;8.856;2022-09-06T03:10:06;18.70;99.90
6333;DHT22;3199;49.102;8.856;2022-09-06T03:12:32;18.70;99.90
6333;DHT22;3199;49.102;8.856;2022-09-06T03:14:57;18.70;99.90
6333;DHT22;3199;49.102;8.856;2022-09-06T03:17:23;18.70;99.90
6333;DHT22;3199;49.102;8.856;2022-09-06T03:19:48;18.70;99.90
6333;DHT22;3199;49.102;8.856;2022-09-06T03:22:14;18.70;99.90
6333;DHT22;3199;49.102;8.856;2022-09-06T03:24:39;18.60;99.90
6333;DHT22;3199;49.102;8.856;2022-09-06T03:27:05;18.60;99.90
6333;DHT22;3199;49.102;8.856;2022-09-06T03:29:31;18.60;99.90
6333;DHT22;3199;49.102;8.856;2022-09-06T03:31:56;18.60;99.90
6333;DHT22;3199;49.102;8.856;2022-09-06T03:34:22;18.60;99.90
6333;DHT22;3199;49.102;8.856;2022-09-06T03:36:47;18.50;99.90
6333;DHT22;3199;49.102;8.856;2022-09-06T03:39:13;18.50;99.90
6333;DHT22;3199;49.102;8.856;2022-09-06T03:41:38;18.40;99.90
6333;DHT22;3199;49.102;8.856;2022-09-06T03:44:04;18.40;99.90
6333;DHT22;3199;49.102;8.856;2022-09-06T03:46:30;18.40;99.90
6333;DHT22;3199;49.102;8.856;2022-09-06T03:48:59;18.40;99.90
6333;DHT22;3199;49.102;8.856;2022-09-06T03:51:26;18.40;99.90
6333;DHT22;3199;49.102;8.856;2022-09-06T03:53:51;18.30;99.90
6333;DHT22;3199;49.102;8.856;2022-09-06T03:56:17;18.30;99.90
6333;DHT22;3199;49.102;8.856;2022-09-06T03:58:42;18.30;99.90
6333;DHT22;3199;49.102;8.856;2022-09-06T04:01:10;18.30;99.90
6333;DHT22;3199;49.102;8.856;2022-09-06T04:03:37;18.20;99.90
6333;DHT22;3199;49.102;8.856;2022-09-06T04:06:04;18.20;99.90
6333;DHT22;3199;49.102;8.856;2022-09-06T04:08:30;18.20;99.90
6333;DHT22;3199;49.102;8.856;2022-09-06T04:10:57;18.10;99.90
6333;DHT22;3199;49.102;8.856;2022-09-06T04:13:26;18.10;99.90
6333;DHT22;3199;49.102;8.856;2022-09-06T04:15:52;18.10;99.90
6333;DHT22;3199;49.102;8.856;2022-09-06T04:18:19;18.10;99.90
6333;DHT22;3199;49.102;8.856;2022-09-06T04:20:47;18.10;99.90
6333;DHT22;3199;49.102;8.856;2022-09-06T04:23:14;18.00;99.90
6333;DHT22;3199;49.102;8.856;2022-09-06T04:25:39;18.00;99.90
6333;DHT22;3199;49.102;8.856;2022-09-06T04:28:05;18.00;99.90
6333;DHT22;3199;49.102;8.856;2022-09-06T04:30:30;17.90;99.90
6333;DHT22;3199;49.102;8.856;2022-09-06T04:32:56;17.90;99.90
6333;DHT22;3199;49.102;8.856;2022-09-06T04:35:21;17.90;99.90
6333;DHT22;3199;49.102;8.856;2022-09-06T04:37:47;17.80;99.90
6333;DHT22;3199;49.102;8.856;2022-09-06T04:40:12;17.80;99.90
6333;DHT22;3199;49.102;8.856;2022-09-06T04:42:38;17.80;99.90
6333;DHT22;3199;49.102;8.856;2022-09-06T04:45:04;17.80;99.90
6333;DHT22;3199;49.102;8.856;2022-09-06T04:47:30;17.70;99.90
6333;DHT22;3199;49.102;8.856;2022-09-06T04:49:55;17.70;99.90
6333;DHT22;3199;49.102;8.856;2022-09-06T04:52:21;17.70;99.90
6333;DHT22;3199;49.102;8.856;2022-09-06T04:54:46;17.70;99.90
6333;DHT22;3199;49.102;8.856;2022-09-06T04:57:12;17.60;99.90
6333;DHT22;3199;49.102;8.856;2022-09-06T04:59:37;17.60;99.90
6333;DHT22;3199;49.102;8.856;2022-09-06T05:02:03;17.60;99.90
6333;DHT22;3199;49.102;8.856;2022-09-06T05:04:28;17.50;99.90
6333;DHT22;3199;49.102;8.856;2022-09-06T05:07:07;17.50;99.90
6333;DHT22;3199;49.102;8.856;2022-09-06T05:09:33;17.60;99.90
6333;DHT22;3199;49.102;8.856;2022-09-06T05:11:59;17.60;99.90
6333;DHT22;3199;49.102;8.856;2022-09-06T05:14:26;17.60;99.90
6333;DHT22;3199;49.102;8.856;2022-09-06T05:16:52;17.60;99.90
6333;DHT22;3199;49.102;8.856;2022-09-06T05:19:18;17.60;99.90
6333;DHT22;3199;49.102;8.856;2022-09-06T05:21:44;17.60;99.90
6333;DHT22;3199;49.102;8.856;2022-09-06T05:24:10;17.60;99.90
6333;DHT22;3199;49.102;8.856;2022-09-06T05:26:36;17.60;99.90
6333;DHT22;3199;49.102;8.856;2022-09-06T05:29:01;17.70;99.90
6333;DHT22;3199;49.102;8.856;2022-09-06T05:31:28;17.80;99.90
6333;DHT22;3199;49.102;8.856;2022-09-06T05:33:55;17.80;99.90
6333;DHT22;3199;49.102;8.856;2022-09-06T05:36:22;18.00;99.90
6333;DHT22;3199;49.102;8.856;2022-09-06T05:38:52;18.10;99.90
6333;DHT22;3199;49.102;8.856;2022-09-06T05:41:18;18.20;99.90
6333;DHT22;3199;49.102;8.856;2022-09-06T05:43:44;18.30;99.90
6333;DHT22;3199;49.102;8.856;2022-09-06T05:46:10;18.40;99.90
6333;DHT22;3199;49.102;8.856;2022-09-06T05:48:36;18.60;99.90
6333;DHT22;3199;49.102;8.856;2022-09-06T05:51:11;18.70;99.90
6333;DHT22;3199;49.102;8.856;2022-09-06T05:53:44;18.80;99.90
6333;DHT22;3199;49.102;8.856;2022-09-06T05:56:11;18.80;99.90
6333;DHT22;3199;49.102;8.856;2022-09-06T05:58:37;18.90;99.90
6333;DHT22;3199;49.102;8.856;2022-09-06T06:01:17;19.00;99.90
6333;DHT22;3199;49.102;8.856;2022-09-06T06:03:56;19.10;99.90
6333;DHT22;3199;49.102;8.856;2022-09-06T06:06:24;19.20;99.90
6333;DHT22;3199;49.102;8.856;2022-09-06T06:08:50;19.30;99.90
6333;DHT22;3199;49.102;8.856;2022-09-06T06:11:16;19.40;99.90
6333;DHT22;3199;49.102;8.856;2022-09-06T06:13:41;19.40;99.90
6333;DHT22;3199;49.102;8.856;2022-09-06T06:16:09;19.50;99.90
6333;DHT22;3199;49.102;8.856;2022-09-06T06:18:35;19.50;99.90
6333;DHT22;3199;49.102;8.856;2022-09-06T06:21:12;19.60;99.90
6333;DHT22;3199;49.102;8.856;2022-09-06T06:23:39;19.60;99.90
6333;DHT22;3199;49.102;8.856;2022-09-06T06:26:06;19.70;99.90
6333;DHT22;3199;49.102;8.856;2022-09-06T06:28:32;19.70;99.90
6333;DHT22;3199;49.102;8.856;2022-09-06T06:30:58;19.80;99.90
6333;DHT22;3199;49.102;8.856;2022-09-06T06:33:23;19.90;99.90
6333;DHT22;3199;49.102;8.856;2022-09-06T06:38:38;20.00;99.90
6333;DHT22;3199;49.102;8.856;2022-09-06T06:41:05;20.10;99.90
6333;DHT22;3199;49.102;8.856;2022-09-06T06:43:32;20.20;99.90
6333;DHT22;3199;49.102;8.856;2022-09-06T06:46:10;20.30;99.90
6333;DHT22;3199;49.102;8.856;2022-09-06T06:48:37;20.40;99.90
6333;DHT22;3199;49.102;8.856;2022-09-06T06:51:09;20.50;99.90
6333;DHT22;3199;49.102;8.856;2022-09-06T06:53:34;20.70;99.90
6333;DHT22;3199;49.102;8.856;2022-09-06T06:56:00;20.80;99.90
6333;DHT22;3199;49.102;8.856;2022-09-06T06:58:26;20.90;99.90
6333;DHT22;3199;49.102;8.856;2022-09-06T07:00:52;21.00;99.90
6333;DHT22;3199;49.102;8.856;2022-09-06T07:03:17;21.10;99.90
6333;DHT22;3199;49.102;8.856;2022-09-06T07:05:43;21.20;99.90
6333;DHT22;3199;49.102;8.856;2022-09-06T07:08:11;21.20;99.90
6333;DHT22;3199;49.102;8.856;2022-09-06T07:10:37;21.30;99.90
6333;DHT22;3199;49.102;8.856;2022-09-06T07:13:03;21.50;99.90
6333;DHT22;3199;49.102;8.856;2022-09-06T07:15:29;22.30;99.90
6333;DHT22;3199;49.102;8.856;2022-09-06T07:17:55;23.50;99.90
6333;DHT22;3199;49.102;8.856;2022-09-06T07:20:21;24.80;99.90
6333;DHT22;3199;49.102;8.856;2022-09-06T07:22:46;25.90;99.90
6333;DHT22;3199;49.102;8.856;2022-09-06T07:25:21;26.80;99.90
6333;DHT22;3199;49.102;8.856;2022-09-06T07:27:47;27.70;97.80
6333;DHT22;3199;49.102;8.856;2022-09-06T07:30:12;27.90;96.80
6333;DHT22;3199;49.102;8.856;2022-09-06T07:32:38;27.70;94.90
6333;DHT22;3199;49.102;8.856;2022-09-06T07:35:04;27.80;95.70
6333;DHT22;3199;49.102;8.856;2022-09-06T07:37:29;28.50;95.10
6333;DHT22;3199;49.102;8.856;2022-09-06T07:39:55;29.40;93.90
6333;DHT22;3199;49.102;8.856;2022-09-06T07:42:21;30.00;93.00
6333;DHT22;3199;49.102;8.856;2022-09-06T07:44:46;30.50;90.40
6333;DHT22;3199;49.102;8.856;2022-09-06T07:47:12;30.50;85.80
6333;DHT22;3199;49.102;8.856;2022-09-06T07:49:39;30.50;86.70
6333;DHT22;3199;49.102;8.856;2022-09-06T07:52:05;30.90;86.70
6333;DHT22;3199;49.102;8.856;2022-09-06T07:54:31;31.20;84.80
6333;DHT22;3199;49.102;8.856;2022-09-06T07:56:56;31.20;83.20
6333;DHT22;3199;49.102;8.856;2022-09-06T07:59:22;31.40;81.70
6333;DHT22;3199;49.102;8.856;2022-09-06T08:01:47;31.80;82.70
6333;DHT22;3199;49.102;8.856;2022-09-06T08:04:14;31.80;79.00
6333;DHT22;3199;49.102;8.856;2022-09-06T08:06:45;32.10;80.40
6333;DHT22;3199;49.102;8.856;2022-09-06T08:09:12;32.50;77.00
6333;DHT22;3199;49.102;8.856;2022-09-06T08:11:38;32.70;77.20
6333;DHT22;3199;49.102;8.856;2022-09-06T08:14:06;32.90;75.40
6333;DHT22;3199;49.102;8.856;2022-09-06T08:16:33;33.10;73.80
6333;DHT22;3199;49.102;8.856;2022-09-06T08:19:01;33.20;69.60
6333;DHT22;3199;49.102;8.856;2022-09-06T08:21:28;33.50;69.20
6333;DHT22;3199;49.102;8.856;2022-09-06T08:23:56;33.80;68.40
6333;DHT22;3199;49.102;8.856;2022-09-06T08:26:23;34.00;70.80
6333;DHT22;3199;49.102;8.856;2022-09-06T08:28:57;34.00;68.80
6333;DHT22;3199;49.102;8.856;2022-09-06T08:31:24;34.20;70.00
6333;DHT22;3199;49.102;8.856;2022-09-06T08:33:50;34.30;67.50
6333;DHT22;3199;49.102;8.856;2022-09-06T08:36:16;34.40;65.90
6333;DHT22;3199;49.102;8.856;2022-09-06T08:38:42;34.50;65.90
6333;DHT22;3199;49.102;8.856;2022-09-06T08:41:16;34.70;65.30
6333;DHT22;3199;49.102;8.856;2022-09-06T08:44:02;34.80;65.50
6333;DHT22;3199;49.102;8.856;2022-09-06T08:46:44;34.90;64.30
6333;DHT22;3199;49.102;8.856;2022-09-06T08:49:12;34.60;63.50
6333;DHT22;3199;49.102;8.856;2022-09-06T08:54:36;34.40;64.00
6333;DHT22;3199;49.102;8.856;2022-09-06T08:59:52;34.20;61.00
6333;DHT22;3199;49.102;8.856;2022-09-06T09:02:21;34.10;63.10
6333;DHT22;3199;49.102;8.856;2022-09-06T09:04:53;34.40;62.40
6333;DHT22;3199;49.102;8.856;2022-09-06T09:09:58;34.40;61.60
6333;DHT22;3199;49.102;8.856;2022-09-06T09:12:29;33.90;60.70
6333;DHT22;3199;49.102;8.856;2022-09-06T09:15:04;33.30;63.20
6333;DHT22;3199;49.102;8.856;2022-09-06T09:17:31;33.00;64.90
6333;DHT22;3199;49.102;8.856;2022-09-06T09:19:57;32.90;67.80
6333;DHT22;3199;49.102;8.856;2022-09-06T09:22:23;33.10;67.70
6333;DHT22;3199;49.102;8.856;2022-09-06T09:24:50;33.40;67.80
6333;DHT22;3199;49.102;8.856;2022-09-06T09:27:25;33.30;67.00
6333;DHT22;3199;49.102;8.856;2022-09-06T09:32:40;33.60;66.90
6333;DHT22;3199;49.102;8.856;2022-09-06T09:35:22;33.80;66.90
6333;DHT22;3199;49.102;8.856;2022-09-06T09:37:59;33.80;66.20
6333;DHT22;3199;49.102;8.856;2022-09-06T09:42:51;33.50;64.90
6333;DHT22;3199;49.102;8.856;2022-09-06T09:47:44;33.50;63.90
6333;DHT22;3199;49.102;8.856;2022-09-06T09:52:47;32.70;65.10
6333;DHT22;3199;49.102;8.856;2022-09-06T09:55:13;32.40;66.10
6333;DHT22;3199;49.102;8.856;2022-09-06T09:57:44;32.00;67.90
6333;DHT22;3199;49.102;8.856;2022-09-06T10:00:11;31.90;69.90
6333;DHT22;3199;49.102;8.856;2022-09-06T10:02:39;31.90;70.70
6333;DHT22;3199;49.102;8.856;2022-09-06T10:07:51;32.30;68.90
6333;DHT22;3199;49.102;8.856;2022-09-06T10:10:26;32.10;68.30
6333;DHT22;3199;49.102;8.856;2022-09-06T10:13:07;32.10;69.10
6333;DHT22;3199;49.102;8.856;2022-09-06T10:15:38;31.90;70.00
6333;DHT22;3199;49.102;8.856;2022-09-06T10:18:04;31.90;69.40
6333;DHT22;3199;49.102;8.856;2022-09-06T10:20:42;32.00;70.50
6333;DHT22;3199;49.102;8.856;2022-09-06T10:23:18;32.10;70.20
6333;DHT22;3199;49.102;8.856;2022-09-06T10:25:46;32.30;69.10
6333;DHT22;3199;49.102;8.856;2022-09-06T10:28:21;32.30;70.00
6333;DHT22;3199;49.102;8.856;2022-09-06T10:36:37;32.20;68.50
6333;DHT22;3199;49.102;8.856;2022-09-06T10:39:37;32.00;69.80
6333;DHT22;3199;49.102;8.856;2022-09-06T10:45:20;31.60;70.20
6333;DHT22;3199;49.102;8.856;2022-09-06T10:52:59;31.90;68.80
6333;DHT22;3199;49.102;8.856;2022-09-06T10:55:28;31.90;68.70
6333;DHT22;3199;49.102;8.856;2022-09-06T10:58:00;31.70;66.80
6333;DHT22;3199;49.102;8.856;2022-09-06T11:00:39;31.30;66.90
6333;DHT22;3199;49.102;8.856;2022-09-06T11:03:15;31.00;69.00
6333;DHT22;3199;49.102;8.856;2022-09-06T11:05:46;30.80;68.60
6333;DHT22;3199;49.102;8.856;2022-09-06T11:08:29;31.00;68.70
6333;DHT22;3199;49.102;8.856;2022-09-06T11:11:03;31.10;69.60
6333;DHT22;3199;49.102;8.856;2022-09-06T11:13:31;31.10;69.30
6333;DHT22;3199;49.102;8.856;2022-09-06T11:18:45;31.10;69.70
6333;DHT22;3199;49.102;8.856;2022-09-06T11:24:11;31.40;69.20
6333;DHT22;3199;49.102;8.856;2022-09-06T11:26:43;31.70;68.90
6333;DHT22;3199;49.102;8.856;2022-09-06T11:31:57;31.70;67.70
6333;DHT22;3199;49.102;8.856;2022-09-06T11:34:28;31.90;68.80
6333;DHT22;3199;49.102;8.856;2022-09-06T11:36:57;32.20;67.70
6333;DHT22;3199;49.102;8.856;2022-09-06T11:41:57;32.20;66.60
6333;DHT22;3199;49.102;8.856;2022-09-06T11:44:50;31.90;66.00
6333;DHT22;3199;49.102;8.856;2022-09-06T11:47:45;31.70;66.40
6333;DHT22;3199;49.102;8.856;2022-09-06T11:53:13;31.70;67.50
6333;DHT22;3199;49.102;8.856;2022-09-06T11:55:46;31.80;66.90
6333;DHT22;3199;49.102;8.856;2022-09-06T12:00:41;32.00;65.80
6333;DHT22;3199;49.102;8.856;2022-09-06T12:06:17;32.40;65.70
6333;DHT22;3199;49.102;8.856;2022-09-06T12:08:45;32.50;65.10
6333;DHT22;3199;49.102;8.856;2022-09-06T12:11:46;32.40;63.90
6333;DHT22;3199;49.102;8.856;2022-09-06T12:24:56;32.70;62.70
6333;DHT22;3199;49.102;8.856;2022-09-06T12:27:38;32.50;62.50
6333;DHT22;3199;49.102;8.856;2022-09-06T12:30:34;32.50;62.50
6333;DHT22;3199;49.102;8.856;2022-09-06T12:33:12;32.40;62.30
6333;DHT22;3199;49.102;8.856;2022-09-06T12:35:39;32.30;62.10
6333;DHT22;3199;49.102;8.856;2022-09-06T12:38:07;32.10;61.30
6333;DHT22;3199;49.102;8.856;2022-09-06T12:40:39;32.10;61.40
6333;DHT22;3199;49.102;8.856;2022-09-06T12:43:08;32.10;62.60
6333;DHT22;3199;49.102;8.856;2022-09-06T12:45:34;32.20;62.90
6333;DHT22;3199;49.102;8.856;2022-09-06T12:48:12;32.00;60.50
6333;DHT22;3199;49.102;8.856;2022-09-06T12:51:02;31.90;62.20
6333;DHT22;3199;49.102;8.856;2022-09-06T12:53:28;31.60;60.50
6333;DHT22;3199;49.102;8.856;2022-09-06T12:56:09;31.30;61.50
6333;DHT22;3199;49.102;8.856;2022-09-06T12:58:39;31.40;62.10
6333;DHT22;3199;49.102;8.856;2022-09-06T13:01:11;31.30;62.50
6333;DHT22;3199;49.102;8.856;2022-09-06T13:03:49;31.10;62.10
6333;DHT22;3199;49.102;8.856;2022-09-06T13:06:20;31.10;63.20
6333;DHT22;3199;49.102;8.856;2022-09-06T13:08:52;31.10;63.30
6333;DHT22;3199;49.102;8.856;2022-09-06T13:11:31;31.10;64.40
6333;DHT22;3199;49.102;8.856;2022-09-06T13:13:58;31.20;63.20
6333;DHT22;3199;49.102;8.856;2022-09-06T13:16:27;31.10;63.60
6333;DHT22;3199;49.102;8.856;2022-09-06T13:19:10;31.30;63.60
6333;DHT22;3199;49.102;8.856;2022-09-06T13:21:38;31.50;62.60
6333;DHT22;3199;49.102;8.856;2022-09-06T13:24:18;31.60;62.00
6333;DHT22;3199;49.102;8.856;2022-09-06T13:26:43;31.70;62.10
6333;DHT22;3199;49.102;8.856;2022-09-06T13:31:51;32.10;60.10
6333;DHT22;3199;49.102;8.856;2022-09-06T13:36:58;32.10;59.50
6333;DHT22;3199;49.102;8.856;2022-09-06T13:39:43;32.20;60.40
6333;DHT22;3199;49.102;8.856;2022-09-06T13:44:51;32.10;59.40
6333;DHT22;3199;49.102;8.856;2022-09-06T13:47:17;31.90;59.90
6333;DHT22;3199;49.102;8.856;2022-09-06T13:49:42;31.70;61.10
6333;DHT22;3199;49.102;8.856;2022-09-06T13:52:08;31.70;61.40
6333;DHT22;3199;49.102;8.856;2022-09-06T13:54:35;31.70;61.10
6333;DHT22;3199;49.102;8.856;2022-09-06T13:57:01;31.70;61.60
6333;DHT22;3199;49.102;8.856;2022-09-06T13:59:27;31.70;63.50
6333;DHT22;3199;49.102;8.856;2022-09-06T14:02:07;31.60;63.20
6333;DHT22;3199;49.102;8.856;2022-09-06T14:04:34;31.60;63.50
6333;DHT22;3199;49.102;8.856;2022-09-06T14:07:00;31.60;63.30
6333;DHT22;3199;49.102;8.856;2022-09-06T14:09:27;31.70;63.80
6333;DHT22;3199;49.102;8.856;2022-09-06T14:11:52;31.70;62.60
6333;DHT22;3199;49.102;8.856;2022-09-06T14:14:18;31.50;63.30
6333;DHT22;3199;49.102;8.856;2022-09-06T14:16:44;31.30;61.50
6333;DHT22;3199;49.102;8.856;2022-09-06T14:19:10;31.10;61.70
6333;DHT22;3199;49.102;8.856;2022-09-06T14:21:36;31.00;63.70
6333;DHT22;3199;49.102;8.856;2022-09-06T14:24:02;31.00;64.30
6333;DHT22;3199;49.102;8.856;2022-09-06T14:26:29;30.90;62.20
6333;DHT22;3199;49.102;8.856;2022-09-06T14:28:54;30.80;62.30
6333;DHT22;3199;49.102;8.856;2022-09-06T14:31:22;31.00;63.30
6333;DHT22;3199;49.102;8.856;2022-09-06T14:33:50;31.30;62.90
6333;DHT22;3199;49.102;8.856;2022-09-06T14:36:21;31.30;61.60
6333;DHT22;3199;49.102;8.856;2022-09-06T14:38:49;31.30;61.80
6333;DHT22;3199;49.102;8.856;2022-09-06T14:41:17;31.30;61.50
6333;DHT22;3199;49.102;8.856;2022-09-06T14:43:47;31.10;61.40
6333;DHT22;3199;49.102;8.856;2022-09-06T14:46:14;31.00;60.70
6333;DHT22;3199;49.102;8.856;2022-09-06T14:48:41;30.60;63.20
6333;DHT22;3199;49.102;8.856;2022-09-06T14:51:25;30.10;61.20
6333;DHT22;3199;49.102;8.856;2022-09-06T14:53:53;29.50;61.50
6333;DHT22;3199;49.102;8.856;2022-09-06T14:56:20;29.10;60.70
6333;DHT22;3199;49.102;8.856;2022-09-06T14:58:47;28.90;61.50
6333;DHT22;3199;49.102;8.856;2022-09-06T15:01:15;28.80;62.30
6333;DHT22;3199;49.102;8.856;2022-09-06T15:03:46;28.80;61.20
6333;DHT22;3199;49.102;8.856;2022-09-06T15:06:14;28.90;60.60
6333;DHT22;3199;49.102;8.856;2022-09-06T15:08:40;28.90;59.10
6333;DHT22;3199;49.102;8.856;2022-09-06T15:11:06;28.90;59.30
6333;DHT22;3199;49.102;8.856;2022-09-06T15:13:33;28.90;59.30
6333;DHT22;3199;49.102;8.856;2022-09-06T15:16:00;28.80;59.00
6333;DHT22;3199;49.102;8.856;2022-09-06T15:18:27;28.70;59.00
6333;DHT22;3199;49.102;8.856;2022-09-06T15:20:53;28.50;59.10
6333;DHT22;3199;49.102;8.856;2022-09-06T15:23:18;28.30;59.40
6333;DHT22;3199;49.102;8.856;2022-09-06T15:25:51;28.20;58.90
6333;DHT22;3199;49.102;8.856;2022-09-06T15:28:17;28.20;59.30
6333;DHT22;3199;49.102;8.856;2022-09-06T15:30:44;28.10;59.10
6333;DHT22;3199;49.102;8.856;2022-09-06T15:33:10;28.00;58.80
6333;DHT22;3199;49.102;8.856;2022-09-06T15:35:37;27.90;59.30
6333;DHT22;3199;49.102;8.856;2022-09-06T15:38:03;28.00;59.10
6333;DHT22;3199;49.102;8.856;2022-09-06T15:40:28;28.00;59.90
6333;DHT22;3199;49.102;8.856;2022-09-06T15:42:54;27.90;59.50
6333;DHT22;3199;49.102;8.856;2022-09-06T15:45:19;27.90;59.70
6333;DHT22;3199;49.102;8.856;2022-09-06T15:47:45;28.00;59.70
6333;DHT22;3199;49.102;8.856;2022-09-06T15:50:10;27.90;60.10
6333;DHT22;3199;49.102;8.856;2022-09-06T15:52:36;28.00;60.30
6333;DHT22;3199;49.102;8.856;2022-09-06T15:55:02;28.00;60.00
6333;DHT22;3199;49.102;8.856;2022-09-06T15:57:46;28.00;59.20
6333;DHT22;3199;49.102;8.856;2022-09-06T16:00:12;27.90;58.30
6333;DHT22;3199;49.102;8.856;2022-09-06T16:02:38;27.90;58.30
6333;DHT22;3199;49.102;8.856;2022-09-06T16:05:04;27.90;58.00
6333;DHT22;3199;49.102;8.856;2022-09-06T16:07:30;27.90;57.70
6333;DHT22;3199;49.102;8.856;2022-09-06T16:09:56;28.00;57.60
6333;DHT22;3199;49.102;8.856;2022-09-06T16:12:22;28.00;57.60
6333;DHT22;3199;49.102;8.856;2022-09-06T16:14:47;28.00;57.10
6333;DHT22;3199;49.102;8.856;2022-09-06T16:17:13;28.00;56.60
6333;DHT22;3199;49.102;8.856;2022-09-06T16:19:38;28.00;56.40
6333;DHT22;3199;49.102;8.856;2022-09-06T16:22:04;28.00;56.20
6333;DHT22;3199;49.102;8.856;2022-09-06T16:24:30;28.10;56.60
6333;DHT22;3199;49.102;8.856;2022-09-06T16:26:55;28.10;57.10
6333;DHT22;3199;49.102;8.856;2022-09-06T16:29:21;28.10;56.70
6333;DHT22;3199;49.102;8.856;2022-09-06T16:31:47;28.20;55.90
6333;DHT22;3199;49.102;8.856;2022-09-06T16:34:13;28.20;56.30
6333;DHT22;3199;49.102;8.856;2022-09-06T16:36:39;28.30;56.50
6333;DHT22;3199;49.102;8.856;2022-09-06T16:39:05;28.20;55.70
6333;DHT22;3199;49.102;8.856;2022-09-06T16:41:38;28.20;55.40
6333;DHT22;3199;49.102;8.856;2022-09-06T16:44:08;28.30;55.20
6333;DHT22;3199;49.102;8.856;2022-09-06T16:46:34;28.30;55.30
6333;DHT22;3199;49.102;8.856;2022-09-06T16:49:00;28.30;55.30
6333;DHT22;3199;49.102;8.856;2022-09-06T16:51:28;28.30;55.20
6333;DHT22;3199;49.102;8.856;2022-09-06T16:53:55;28.40;54.80
6333;DHT22;3199;49.102;8.856;2022-09-06T16:56:24;28.40;54.90
6333;DHT22;3199;49.102;8.856;2022-09-06T16:58:55;28.40;54.80
6333;DHT22;3199;49.102;8.856;2022-09-06T17:01:22;28.40;54.70
6333;DHT22;3199;49.102;8.856;2022-09-06T17:03:48;28.30;55.00
6333;DHT22;3199;49.102;8.856;2022-09-06T17:06:14;28.30;54.90
6333;DHT22;3199;49.102;8.856;2022-09-06T17:08:40;28.20;55.40
6333;DHT22;3199;49.102;8.856;2022-09-06T17:11:09;28.10;55.90
6333;DHT22;3199;49.102;8.856;2022-09-06T17:13:35;28.00;56.00
6333;DHT22;3199;49.102;8.856;2022-09-06T17:16:01;27.90;56.30
6333;DHT22;3199;49.102;8.856;2022-09-06T17:18:45;27.80;56.60
6333;DHT22;3199;49.102;8.856;2022-09-06T17:21:11;27.80;57.00
6333;DHT22;3199;49.102;8.856;2022-09-06T17:23:38;27.70;57.40
6333;DHT22;3199;49.102;8.856;2022-09-06T17:26:04;27.70;57.60
6333;DHT22;3199;49.102;8.856;2022-09-06T17:28:37;27.70;58.10
6333;DHT22;3199;49.102;8.856;2022-09-06T17:31:05;27.70;58.70
6333;DHT22;3199;49.102;8.856;2022-09-06T17:33:32;27.60;59.30
6333;DHT22;3199;49.102;8.856;2022-09-06T17:36:10;27.50;59.70
6333;DHT22;3199;49.102;8.856;2022-09-06T17:38:39;27.40;60.30
6333;DHT22;3199;49.102;8.856;2022-09-06T17:41:05;27.40;61.20
6333;DHT22;3199;49.102;8.856;2022-09-06T17:43:34;27.20;61.70
6333;DHT22;3199;49.102;8.856;2022-09-06T17:45:59;27.20;63.00
6333;DHT22;3199;49.102;8.856;2022-09-06T17:48:26;27.10;63.80
6333;DHT22;3199;49.102;8.856;2022-09-06T17:50:52;27.00;64.00
6333;DHT22;3199;49.102;8.856;2022-09-06T17:53:20;27.00;64.60
6333;DHT22;3199;49.102;8.856;2022-09-06T17:55:45;26.90;65.10
6333;DHT22;3199;49.102;8.856;2022-09-06T17:58:11;26.80;65.30